createdAt,value
2022-11-10T00:02:33.673Z,10.23
2022-11-10T00:05:00.792Z,10.07
2022-11-10T00:07:35.686Z,8.40
2022-11-10T00:10:09.706Z,9.85
2022-11-10T00:12:43.726Z,9.95
2022-11-10T00:15:37.690Z,9.82
2022-11-10T00:18:05.415Z,9.75
2022-11-10T00:20:38.691Z,8.85
2022-11-10T00:23:26.264Z,9.38
2022-11-10T00:25:59.695Z,8.55
2022-11-10T00:28:29.626Z,9.23
2022-11-10T00:31:03.666Z,9.82
2022-11-10T00:33:30.764Z,9.45
2022-11-10T00:36:07.671Z,10.00
2022-11-10T00:38:41.687Z,11.38
2022-11-10T00:41:09.072Z,12.00
2022-11-10T00:43:42.674Z,12.27
2022-11-10T00:46:09.761Z,17.77
2022-11-10T00:48:43.710Z,11.70
2022-11-10T00:51:27.727Z,13.95
2022-11-10T00:54:01.682Z,11.90
2022-11-10T00:56:35.680Z,9.13
2022-11-10T00:59:02.791Z,13.88
2022-11-10T01:01:30.040Z,10.43
2022-11-10T01:04:03.732Z,13.23
2022-11-10T01:06:31.009Z,13.63
2022-11-10T01:09:04.686Z,12.70
2022-11-10T01:11:31.802Z,13.93
2022-11-10T01:14:05.711Z,10.98
2022-11-10T01:16:34.618Z,9.80
2022-11-10T01:19:09.720Z,9.40
2022-11-10T01:21:42.011Z,13.40
2022-11-10T01:24:15.717Z,10.25
2022-11-10T01:26:51.561Z,11.73
2022-11-10T01:29:26.682Z,13.60
2022-11-10T01:34:34.777Z,10.13
2022-11-10T01:37:13.704Z,12.38
2022-11-10T01:39:40.951Z,8.88
2022-11-10T01:42:21.711Z,9.70
2022-11-10T01:45:27.761Z,10.50
2022-11-10T01:48:07.666Z,10.77
2022-11-10T01:50:43.301Z,8.85
2022-11-10T01:53:24.897Z,8.85
2022-11-10T01:55:53.352Z,7.38
2022-11-10T01:58:34.691Z,10.68
2022-11-10T02:01:02.005Z,6.57
2022-11-10T02:03:59.737Z,7.93
2022-11-10T02:06:30.401Z,5.97
2022-11-10T02:09:05.802Z,8.27
2022-11-10T02:11:33.517Z,6.38
2022-11-10T02:14:07.690Z,7.97
2022-11-10T02:16:36.247Z,6.63
2022-11-10T02:19:45.697Z,6.25
2022-11-10T02:22:12.736Z,7.38
2022-11-10T02:24:46.657Z,5.15
2022-11-10T02:27:26.704Z,6.53
2022-11-10T02:29:53.898Z,7.82
2022-11-10T02:32:31.741Z,5.47
2022-11-10T02:35:19.187Z,6.53
2022-11-10T02:37:52.951Z,6.20
2022-11-10T02:40:20.040Z,6.57
2022-11-10T02:42:47.154Z,3.75
2022-11-10T02:45:21.711Z,6.50
2022-11-10T02:47:50.032Z,5.70
2022-11-10T02:50:29.690Z,4.82
2022-11-10T02:53:03.711Z,4.50
2022-11-10T02:55:30.921Z,5.30
2022-11-10T02:57:58.392Z,4.55
2022-11-10T03:00:32.762Z,5.22
2022-11-10T03:03:11.694Z,3.88
2022-11-10T03:05:38.898Z,3.78
2022-11-10T03:08:12.787Z,4.53
2022-11-10T03:10:46.744Z,4.28
2022-11-10T03:13:13.942Z,5.72
2022-11-10T03:15:47.776Z,4.90
2022-11-10T03:18:14.977Z,4.50
2022-11-10T03:20:48.747Z,4.97
2022-11-10T03:23:36.655Z,3.90
2022-11-10T03:26:14.736Z,5.30
2022-11-10T03:28:41.811Z,4.38
2022-11-10T03:31:15.710Z,5.30
2022-11-10T03:33:42.773Z,4.75
2022-11-10T03:36:16.741Z,5.40
2022-11-10T03:38:44.232Z,3.95
2022-11-10T03:41:19.729Z,3.85
2022-11-10T03:43:48.200Z,3.10
2022-11-10T03:46:22.724Z,4.03
2022-11-10T03:48:53.561Z,4.78
2022-11-10T03:51:28.906Z,5.35
2022-11-10T03:53:56.125Z,4.88
2022-11-10T03:56:29.696Z,4.15
2022-11-10T03:58:56.837Z,5.72
2022-11-10T04:01:30.758Z,3.97
2022-11-10T04:03:57.917Z,3.40
2022-11-10T04:06:49.750Z,3.72
2022-11-10T04:09:16.890Z,3.72
2022-11-10T04:12:09.703Z,3.58
2022-11-10T04:14:55.126Z,7.07
2022-11-10T04:20:02.767Z,4.68
2022-11-10T04:22:55.684Z,3.83
2022-11-10T04:26:02.705Z,3.35
2022-11-10T04:28:36.775Z,4.18
2022-11-10T04:31:04.016Z,5.40
2022-11-10T04:33:31.075Z,3.92
2022-11-10T04:36:04.699Z,4.28
2022-11-10T04:38:31.958Z,5.25
2022-11-10T04:41:05.799Z,4.90
2022-11-10T04:43:33.503Z,5.03
2022-11-10T04:46:09.729Z,3.85
2022-11-10T04:48:36.880Z,4.03
2022-11-10T04:51:13.798Z,3.42
2022-11-10T04:53:47.762Z,3.55
2022-11-10T04:56:26.727Z,4.40
2022-11-10T04:58:54.561Z,4.43
2022-11-10T05:01:32.786Z,3.22
2022-11-10T05:04:00.033Z,3.65
2022-11-10T05:06:33.854Z,4.30
2022-11-10T05:09:07.751Z,3.75
2022-11-10T05:11:35.481Z,4.22
2022-11-10T05:14:08.751Z,3.65
2022-11-10T05:16:36.040Z,4.07
2022-11-10T05:19:10.731Z,2.80
2022-11-10T05:21:44.879Z,4.32
2022-11-10T05:24:24.792Z,3.93
2022-11-10T05:26:58.865Z,3.70
2022-11-10T05:29:32.728Z,3.97
2022-11-10T05:31:59.905Z,3.88
2022-11-10T05:34:33.746Z,3.28
2022-11-10T05:37:00.942Z,4.45
2022-11-10T05:39:28.091Z,2.50
2022-11-10T05:42:01.820Z,3.00
2022-11-10T05:44:35.754Z,3.35
2022-11-10T05:47:03.055Z,2.75
2022-11-10T05:49:36.737Z,3.38
2022-11-10T05:52:03.914Z,3.53
2022-11-10T05:54:40.798Z,2.80
2022-11-10T05:57:07.880Z,3.83
2022-11-10T05:59:41.740Z,4.28
2022-11-10T06:02:08.865Z,3.95
2022-11-10T06:04:42.758Z,2.85
2022-11-10T06:07:16.794Z,3.67
2022-11-10T06:09:44.022Z,4.03
2022-11-10T06:12:17.702Z,3.95
2022-11-10T06:14:44.801Z,3.88
2022-11-10T06:17:18.753Z,4.88
2022-11-10T06:19:46.426Z,3.10
2022-11-10T06:22:19.733Z,4.47
2022-11-10T06:25:06.729Z,3.50
2022-11-10T06:27:40.700Z,5.07
2022-11-10T06:30:08.487Z,2.67
2022-11-10T06:32:41.792Z,3.97
2022-11-10T06:35:09.116Z,3.05
2022-11-10T06:37:42.736Z,4.68
2022-11-10T06:40:12.940Z,4.20
2022-11-10T06:42:46.762Z,3.47
2022-11-10T06:45:13.849Z,4.68
2022-11-10T06:47:40.882Z,4.20
2022-11-10T06:50:14.733Z,2.30
2022-11-10T06:52:41.806Z,2.40
2022-11-10T06:55:15.716Z,3.38
2022-11-10T06:57:42.778Z,3.03
2022-11-10T07:00:17.723Z,4.05
2022-11-10T07:02:44.794Z,2.63
2022-11-10T07:05:18.691Z,3.30
2022-11-10T07:07:45.745Z,1.88
2022-11-10T07:10:19.730Z,3.33
2022-11-10T07:12:53.746Z,4.15
2022-11-10T07:15:27.720Z,3.20
2022-11-10T07:17:55.282Z,1.77
2022-11-10T07:20:22.465Z,5.05
2022-11-10T07:22:56.728Z,2.72
2022-11-10T07:25:45.741Z,3.20
2022-11-10T07:28:12.935Z,3.38
2022-11-10T07:30:47.761Z,2.88
2022-11-10T07:33:15.726Z,5.05
2022-11-10T07:35:43.035Z,3.13
2022-11-10T07:38:19.761Z,3.55
2022-11-10T07:40:46.995Z,4.07
2022-11-10T07:43:21.129Z,3.50
2022-11-10T07:45:56.751Z,4.82
2022-11-10T07:48:30.741Z,3.63
2022-11-10T07:50:57.880Z,3.45
2022-11-10T07:53:25.207Z,4.78
2022-11-10T07:55:59.730Z,4.55
2022-11-10T07:58:26.906Z,4.40
2022-11-10T08:01:00.797Z,4.32
2022-11-10T08:03:27.936Z,4.25
2022-11-10T08:06:02.741Z,3.60
2022-11-10T08:08:29.940Z,3.92
2022-11-10T08:11:05.746Z,4.10
2022-11-10T08:13:39.799Z,4.05
2022-11-10T08:16:13.751Z,4.30
2022-11-10T08:18:40.816Z,4.60
2022-11-10T08:21:14.771Z,3.30
2022-11-10T08:23:48.726Z,3.55
2022-11-10T08:26:22.481Z,4.03
2022-11-10T08:28:55.775Z,3.88
2022-11-10T08:31:23.136Z,5.18
2022-11-10T08:33:56.751Z,4.50
2022-11-10T08:36:24.266Z,4.93
2022-11-10T08:38:57.727Z,4.65
2022-11-10T08:41:24.915Z,5.13
2022-11-10T08:43:58.762Z,4.63
2022-11-10T08:46:25.847Z,5.03
2022-11-10T08:48:52.961Z,6.97
2022-11-10T08:51:26.765Z,4.85
2022-11-10T08:53:54.036Z,4.90
2022-11-10T08:56:28.131Z,5.80
2022-11-10T08:58:55.296Z,5.57
2022-11-10T09:01:28.762Z,6.05
2022-11-10T09:03:55.886Z,5.40
2022-11-10T09:06:29.780Z,5.97
2022-11-10T09:09:03.761Z,5.20
2022-11-10T09:11:31.026Z,7.88
2022-11-10T09:14:04.752Z,6.88
2022-11-10T09:16:31.897Z,5.20
2022-11-10T09:18:58.987Z,4.90
2022-11-10T09:21:32.768Z,5.75
2022-11-10T09:24:06.738Z,5.45
2022-11-10T09:26:47.758Z,4.97
2022-11-10T09:29:24.558Z,4.28
2022-11-10T09:31:51.688Z,4.03
2022-11-10T09:34:18.841Z,5.10
2022-11-10T09:36:52.775Z,5.10
2022-11-10T09:39:26.724Z,6.45
2022-11-10T09:41:53.846Z,7.53
2022-11-10T09:44:35.771Z,3.80
2022-11-10T09:47:56.190Z,5.57
2022-11-10T09:50:37.761Z,7.30
2022-11-10T09:53:12.728Z,5.13
2022-11-10T09:56:09.822Z,5.03
2022-11-10T09:58:51.812Z,10.65
2022-11-10T10:01:31.077Z,5.35
2022-11-10T10:04:23.776Z,7.53
2022-11-10T10:07:25.804Z,5.30
2022-11-10T10:10:18.687Z,5.05
2022-11-10T10:13:13.763Z,4.05
2022-11-10T10:15:56.767Z,6.03
2022-11-10T10:18:48.281Z,4.82
2022-11-10T10:21:36.808Z,5.03
2022-11-10T10:24:16.560Z,4.80
2022-11-10T10:26:57.546Z,5.25
2022-11-10T10:29:37.986Z,4.63
2022-11-10T10:32:15.791Z,5.93
2022-11-10T10:34:44.692Z,4.28
2022-11-10T10:37:29.802Z,5.50
2022-11-10T10:39:57.025Z,5.18
2022-11-10T10:42:42.801Z,5.78
2022-11-10T10:45:31.867Z,5.38
2022-11-10T10:47:59.461Z,4.05
2022-11-10T10:50:42.745Z,4.32
2022-11-10T10:53:24.746Z,4.65
2022-11-10T10:56:04.915Z,4.45
2022-11-10T10:58:42.827Z,4.80
2022-11-10T11:01:22.847Z,5.93
2022-11-10T11:03:59.786Z,6.22
2022-11-10T11:06:32.485Z,4.60
2022-11-10T11:09:16.780Z,9.05
2022-11-10T11:11:52.776Z,5.40
2022-11-10T11:14:25.326Z,6.10
2022-11-10T11:17:01.896Z,5.10
2022-11-10T11:19:33.963Z,5.85
2022-11-10T11:22:28.801Z,4.78
2022-11-10T11:25:21.305Z,7.30
2022-11-10T11:28:18.882Z,7.55
2022-11-10T11:31:08.421Z,6.82
2022-11-10T11:33:46.790Z,11.10
2022-11-10T11:36:58.826Z,7.38
2022-11-10T11:39:32.447Z,7.68
2022-11-10T11:42:22.770Z,7.75
2022-11-10T11:45:39.765Z,8.25
2022-11-10T11:48:44.759Z,6.38
2022-11-10T11:51:42.803Z,6.18
2022-11-10T11:55:03.785Z,7.68
2022-11-10T11:57:48.824Z,7.43
2022-11-10T12:00:19.054Z,6.55
2022-11-10T12:03:07.801Z,9.80
2022-11-10T12:06:12.784Z,7.72
2022-11-10T12:08:52.819Z,8.02
2022-11-10T12:11:19.913Z,7.20
2022-11-10T12:14:11.816Z,8.52
2022-11-10T12:16:41.580Z,8.15
2022-11-10T12:19:33.781Z,9.25
2022-11-10T12:22:15.810Z,6.25
2022-11-10T12:24:53.792Z,6.95
2022-11-10T12:27:42.211Z,5.97
2022-11-10T12:30:25.874Z,5.55
2022-11-10T12:33:16.255Z,8.20
2022-11-10T12:35:52.787Z,6.65
2022-11-10T12:39:05.073Z,5.45
2022-11-10T12:41:54.779Z,6.53
2022-11-10T12:44:33.814Z,5.78
2022-11-10T12:47:11.794Z,6.75
2022-11-10T12:49:48.291Z,5.10
2022-11-10T12:52:36.807Z,6.70
2022-11-10T12:55:04.538Z,5.63
2022-11-10T12:57:39.824Z,5.20
2022-11-10T13:00:28.490Z,5.68
2022-11-10T13:03:03.890Z,6.55
2022-11-10T13:08:36.826Z,5.45
2022-11-10T13:11:20.751Z,4.43
2022-11-10T13:14:00.805Z,7.25
2022-11-10T13:16:42.588Z,5.20
2022-11-10T13:19:18.840Z,8.05
2022-11-10T13:21:58.779Z,6.00
2022-11-10T13:24:41.113Z,6.70
2022-11-10T13:27:52.850Z,6.78
2022-11-10T13:30:46.476Z,5.25
2022-11-10T13:33:31.767Z,6.47
2022-11-10T13:35:59.022Z,5.53
2022-11-10T13:38:47.893Z,5.35
2022-11-10T13:41:17.887Z,5.63
2022-11-10T13:44:03.038Z,5.05
2022-11-10T13:47:03.820Z,5.13
2022-11-10T13:49:55.825Z,4.28
2022-11-10T13:52:39.817Z,3.90
2022-11-10T13:55:27.882Z,4.78
2022-11-10T13:57:59.283Z,4.95
2022-11-10T14:00:38.875Z,5.03
2022-11-10T14:03:47.907Z,4.20
2022-11-10T14:06:28.796Z,4.00
2022-11-10T14:09:33.836Z,3.60
2022-11-10T14:12:22.796Z,4.22
2022-11-10T14:14:59.784Z,3.70
2022-11-10T14:17:41.866Z,3.25
2022-11-10T14:20:45.839Z,3.55
2022-11-10T14:23:56.840Z,3.90
2022-11-10T14:27:01.104Z,3.08
2022-11-10T14:29:45.852Z,3.88
2022-11-10T14:32:26.886Z,2.67
2022-11-10T14:35:02.858Z,3.35
2022-11-10T14:37:36.780Z,2.85
2022-11-10T14:40:10.789Z,2.63
2022-11-10T14:42:39.611Z,1.88
2022-11-10T14:45:22.915Z,2.00
2022-11-10T14:47:59.595Z,3.22
2022-11-10T14:50:41.829Z,2.63
2022-11-10T14:53:08.981Z,2.22
2022-11-10T14:55:43.835Z,2.70
2022-11-10T14:58:11.457Z,3.03
2022-11-10T15:00:41.125Z,2.85
2022-11-10T15:03:18.821Z,3.53
2022-11-10T15:05:46.348Z,3.20
2022-11-10T15:08:23.012Z,3.35
2022-11-10T15:10:53.383Z,3.33
2022-11-10T15:13:42.786Z,3.85
2022-11-10T15:16:38.825Z,5.20
2022-11-10T15:19:45.971Z,8.00
2022-11-10T15:22:12.990Z,7.00
2022-11-10T15:25:01.889Z,4.00
2022-11-10T15:27:35.715Z,6.10
2022-11-10T15:30:09.830Z,4.57
2022-11-10T15:32:43.552Z,4.50
2022-11-10T15:35:28.828Z,4.80
2022-11-10T15:38:06.522Z,4.95
2022-11-10T15:40:41.861Z,6.15
2022-11-10T15:43:08.880Z,6.05
2022-11-10T15:45:43.830Z,7.97
2022-11-10T15:48:14.080Z,7.63
2022-11-10T15:50:55.813Z,7.45
2022-11-10T15:53:40.830Z,7.70
2022-11-10T15:56:09.336Z,6.82
2022-11-10T15:58:42.808Z,8.50
2022-11-10T16:01:12.711Z,7.88
2022-11-10T16:03:46.822Z,7.97
2022-11-10T16:06:21.826Z,8.98
2022-11-10T16:11:25.812Z,8.23
2022-11-10T16:13:54.947Z,7.22
2022-11-10T16:16:30.806Z,10.15
2022-11-10T16:19:04.900Z,10.77
2022-11-10T16:21:31.939Z,6.60
2022-11-10T16:24:05.840Z,6.65
2022-11-10T16:26:49.820Z,7.80
2022-11-10T16:29:23.736Z,7.03
2022-11-10T16:31:57.786Z,6.55
2022-11-10T16:34:24.821Z,6.72
2022-11-10T16:36:58.837Z,7.70
2022-11-10T16:39:27.945Z,6.00
2022-11-10T16:41:54.961Z,6.38
2022-11-10T16:44:29.857Z,5.13
2022-11-10T16:46:57.492Z,4.72
2022-11-10T16:49:37.865Z,6.78
2022-11-10T16:52:19.846Z,6.70
2022-11-10T16:54:53.858Z,7.63
2022-11-10T16:57:27.842Z,5.43
2022-11-10T16:59:54.852Z,6.13
2022-11-10T17:02:47.487Z,6.18
2022-11-10T17:05:18.954Z,5.68
2022-11-10T17:07:52.915Z,6.32
2022-11-10T17:10:28.854Z,6.00
2022-11-10T17:12:56.303Z,7.28
2022-11-10T17:15:29.825Z,6.25
2022-11-10T17:18:05.955Z,6.25
2022-11-10T17:20:36.374Z,7.80
2022-11-10T17:23:10.900Z,7.07
2022-11-10T17:25:51.865Z,7.20
2022-11-10T17:28:31.896Z,6.28
2022-11-10T17:30:59.085Z,8.23
2022-11-10T17:33:32.907Z,8.50
2022-11-10T17:36:08.972Z,8.25
2022-11-10T17:38:36.989Z,8.48
2022-11-10T17:41:04.077Z,7.78
2022-11-10T17:43:41.508Z,7.38
2022-11-10T17:46:11.785Z,9.27
2022-11-10T17:48:45.865Z,8.93
2022-11-10T17:51:21.075Z,9.52
2022-11-10T17:53:54.885Z,11.68
2022-11-10T17:56:22.046Z,7.97
2022-11-10T17:58:55.934Z,10.98
2022-11-10T18:01:29.950Z,11.48
2022-11-10T18:04:03.863Z,12.35
2022-11-10T18:06:31.679Z,11.55
2022-11-10T18:08:58.878Z,10.20
2022-11-10T18:11:32.901Z,10.52
2022-11-10T18:14:02.141Z,9.88
2022-11-10T18:16:35.901Z,10.68
2022-11-10T18:19:03.200Z,9.93
2022-11-10T18:21:36.900Z,9.13
2022-11-10T18:24:04.100Z,9.80
2022-11-10T18:26:44.860Z,7.57
2022-11-10T18:29:25.866Z,9.45
2022-11-10T18:31:59.861Z,7.53
2022-11-10T18:34:27.167Z,9.20
2022-11-10T18:37:00.920Z,8.52
2022-11-10T18:39:28.191Z,7.68
2022-11-10T18:42:01.872Z,10.23
2022-11-10T18:44:36.937Z,7.65
2022-11-10T18:49:44.878Z,8.52
2022-11-10T18:52:12.751Z,7.55
2022-11-10T18:54:46.882Z,7.97
2022-11-10T18:57:16.745Z,9.80
2022-11-10T18:59:50.913Z,7.80
2022-11-10T19:02:18.410Z,9.53
2022-11-10T19:04:53.836Z,6.53
2022-11-10T19:07:21.801Z,7.78
2022-11-10T19:09:49.520Z,11.05
2022-11-10T19:12:26.519Z,8.13
2022-11-10T19:15:00.956Z,7.88
2022-11-10T19:17:34.979Z,6.75
2022-11-10T19:20:03.152Z,8.18
2022-11-10T19:22:31.119Z,7.78
2022-11-10T19:25:08.628Z,8.70
2022-11-10T19:27:43.110Z,8.70
2022-11-10T19:30:23.979Z,7.90
2022-11-10T19:32:51.191Z,9.25
2022-11-10T19:35:24.994Z,7.70
2022-11-10T19:38:01.037Z,9.68
2022-11-10T19:40:28.141Z,8.02
2022-11-10T19:43:01.971Z,9.13
2022-11-10T19:45:36.073Z,7.47
2022-11-10T19:48:10.008Z,7.70
2022-11-10T19:50:37.074Z,9.30
2022-11-10T19:53:11.258Z,7.97
2022-11-10T19:55:38.363Z,10.10
2022-11-10T19:58:11.977Z,10.02
2022-11-10T20:00:39.125Z,8.45
2022-11-10T20:03:18.022Z,10.20
2022-11-10T20:05:46.778Z,9.40
2022-11-10T20:08:22.015Z,9.57
2022-11-10T20:10:49.088Z,10.00
2022-11-10T20:13:23.305Z,9.80
2022-11-10T20:15:50.866Z,8.90
2022-11-10T20:18:25.121Z,11.98
2022-11-10T20:20:59.105Z,8.97
2022-11-10T20:23:26.365Z,9.02
2022-11-10T20:26:12.998Z,8.75
2022-11-10T20:28:56.037Z,10.02
2022-11-10T20:31:32.103Z,8.05
2022-11-10T20:34:06.079Z,8.25
2022-11-10T20:36:41.070Z,8.95
2022-11-10T20:39:14.964Z,9.77
2022-11-10T20:41:42.132Z,9.48
2022-11-10T20:44:16.045Z,7.68
2022-11-10T20:46:58.609Z,8.35
2022-11-10T20:49:32.960Z,10.30
2022-11-10T20:52:07.937Z,7.97
2022-11-10T20:54:42.046Z,9.57
2022-11-10T20:57:09.281Z,10.27
2022-11-10T20:59:43.054Z,14.50
2022-11-10T21:02:15.700Z,9.73
2022-11-10T21:04:49.911Z,12.07
2022-11-10T21:07:17.192Z,9.80
2022-11-10T21:09:51.908Z,15.50
2022-11-10T21:12:37.450Z,11.57
2022-11-10T21:17:42.982Z,13.98
2022-11-10T21:20:17.863Z,15.68
2022-11-10T21:22:44.938Z,16.98
2022-11-10T21:25:19.906Z,15.35
2022-11-10T21:27:53.674Z,16.65
2022-11-10T21:30:29.851Z,18.77
2022-11-10T21:32:57.172Z,18.92
2022-11-10T21:35:34.059Z,19.77
2022-11-10T21:38:05.896Z,15.70
2022-11-10T21:40:39.984Z,17.92
2022-11-10T21:43:14.009Z,17.08
2022-11-10T21:45:41.257Z,15.88
2022-11-10T21:48:15.919Z,14.02
2022-11-10T21:50:43.203Z,18.95
2022-11-10T21:53:16.926Z,16.52
2022-11-10T21:55:44.083Z,15.07
2022-11-10T21:58:17.916Z,15.10
2022-11-10T22:00:51.877Z,14.52
2022-11-10T22:03:26.047Z,12.90
2022-11-10T22:05:59.944Z,13.77
2022-11-10T22:08:33.895Z,12.73
2022-11-10T22:11:19.325Z,11.15
2022-11-10T22:17:09.663Z,9.82
2022-11-10T22:19:43.871Z,9.70
2022-11-10T22:22:20.901Z,13.13
2022-11-10T22:24:48.137Z,10.80
2022-11-10T22:27:21.895Z,9.48
2022-11-10T22:29:49.006Z,10.13
2022-11-10T22:32:22.957Z,8.52
2022-11-10T22:34:56.881Z,8.73
2022-11-10T22:37:23.987Z,7.90
2022-11-10T22:40:15.856Z,8.02
2022-11-10T22:43:03.822Z,7.72
2022-11-10T22:45:37.916Z,10.60
2022-11-10T22:48:29.858Z,10.20
2022-11-10T22:51:03.893Z,9.35
2022-11-10T22:53:31.441Z,8.82
2022-11-10T22:56:07.886Z,10.20
2022-11-10T22:58:35.006Z,8.52
2022-11-10T23:01:16.944Z,10.63
2022-11-10T23:03:44.092Z,6.72
2022-11-10T23:06:18.910Z,7.65
2022-11-10T23:08:46.020Z,7.30
2022-11-10T23:11:25.903Z,8.18
2022-11-10T23:13:59.904Z,8.63
2022-11-10T23:16:29.707Z,10.43
2022-11-10T23:19:04.910Z,8.02
2022-11-10T23:21:38.895Z,8.15
2022-11-10T23:24:06.478Z,9.73
2022-11-10T23:26:46.923Z,7.55
2022-11-10T23:29:20.722Z,7.82
2022-11-10T23:31:53.894Z,8.00
2022-11-10T23:34:21.008Z,7.82
2022-11-10T23:36:54.885Z,5.80
2022-11-10T23:39:22.002Z,6.75
2022-11-10T23:41:55.879Z,5.40
2022-11-10T23:44:30.058Z,5.90
2022-11-10T23:46:57.097Z,6.67
2022-11-10T23:49:30.907Z,8.20
2022-11-10T23:52:04.934Z,7.25
2022-11-10T23:54:39.001Z,7.30
2022-11-10T23:57:06.124Z,6.70
2022-11-10T23:59:39.993Z,8.10
